sensor_id;sensor_type;location;lat;lon;timestamp;P1;durP1;ratioP1;P2;durP2;ratioP2
66972;SDS011;53902;51.466;-2.586;2023-05-07T00:01:47;15.02;;;6.50;;
66972;SDS011;53902;51.466;-2.586;2023-05-07T00:04:13;18.08;;;7.03;;
66972;SDS011;53902;51.466;-2.586;2023-05-07T00:06:38;14.55;;;6.95;;
66972;SDS011;53902;51.466;-2.586;2023-05-07T00:09:04;16.27;;;7.10;;
66972;SDS011;53902;51.466;-2.586;2023-05-07T00:11:30;12.30;;;6.30;;
66972;SDS011;53902;51.466;-2.586;2023-05-07T00:13:56;14.15;;;7.00;;
66972;SDS011;53902;51.466;-2.586;2023-05-07T00:16:21;16.55;;;6.93;;
66972;SDS011;53902;51.466;-2.586;2023-05-07T00:18:47;16.83;;;6.85;;
66972;SDS011;53902;51.466;-2.586;2023-05-07T00:21:12;16.35;;;7.55;;
66972;SDS011;53902;51.466;-2.586;2023-05-07T00:23:37;18.63;;;6.88;;
66972;SDS011;53902;51.466;-2.586;2023-05-07T00:26:03;13.40;;;6.90;;
66972;SDS011;53902;51.466;-2.586;2023-05-07T00:28:29;17.05;;;6.38;;
66972;SDS011;53902;51.466;-2.586;2023-05-07T00:30:54;14.02;;;7.50;;
66972;SDS011;53902;51.466;-2.586;2023-05-07T00:33:20;14.70;;;7.18;;
66972;SDS011;53902;51.466;-2.586;2023-05-07T00:35:45;14.68;;;7.05;;
66972;SDS011;53902;51.466;-2.586;2023-05-07T00:38:11;14.05;;;6.97;;
66972;SDS011;53902;51.466;-2.586;2023-05-07T00:40:36;12.23;;;7.22;;
66972;SDS011;53902;51.466;-2.586;2023-05-07T00:43:02;16.48;;;7.28;;
66972;SDS011;53902;51.466;-2.586;2023-05-07T00:45:28;14.02;;;7.18;;
66972;SDS011;53902;51.466;-2.586;2023-05-07T00:47:54;12.52;;;7.00;;
66972;SDS011;53902;51.466;-2.586;2023-05-07T00:50:20;15.45;;;7.13;;
66972;SDS011;53902;51.466;-2.586;2023-05-07T00:52:46;18.55;;;7.55;;
66972;SDS011;53902;51.466;-2.586;2023-05-07T00:55:11;15.75;;;6.97;;
66972;SDS011;53902;51.466;-2.586;2023-05-07T00:57:39;16.13;;;7.25;;
66972;SDS011;53902;51.466;-2.586;2023-05-07T01:00:06;14.83;;;7.40;;
66972;SDS011;53902;51.466;-2.586;2023-05-07T01:02:33;16.88;;;7.35;;
66972;SDS011;53902;51.466;-2.586;2023-05-07T01:05:00;20.70;;;8.63;;
66972;SDS011;53902;51.466;-2.586;2023-05-07T01:07:25;15.18;;;7.75;;
66972;SDS011;53902;51.466;-2.586;2023-05-07T01:09:53;13.90;;;7.85;;
66972;SDS011;53902;51.466;-2.586;2023-05-07T01:12:18;17.83;;;8.45;;
66972;SDS011;53902;51.466;-2.586;2023-05-07T01:14:44;21.10;;;9.23;;
66972;SDS011;53902;51.466;-2.586;2023-05-07T01:17:10;17.02;;;8.20;;
66972;SDS011;53902;51.466;-2.586;2023-05-07T01:19:35;24.90;;;10.25;;
66972;SDS011;53902;51.466;-2.586;2023-05-07T01:22:02;22.10;;;8.95;;
66972;SDS011;53902;51.466;-2.586;2023-05-07T01:24:32;33.17;;;9.80;;
66972;SDS011;53902;51.466;-2.586;2023-05-07T01:26:58;20.33;;;9.70;;
66972;SDS011;53902;51.466;-2.586;2023-05-07T01:29:24;24.25;;;8.95;;
66972;SDS011;53902;51.466;-2.586;2023-05-07T01:31:50;19.40;;;8.70;;
66972;SDS011;53902;51.466;-2.586;2023-05-07T01:34:15;17.73;;;8.85;;
66972;SDS011;53902;51.466;-2.586;2023-05-07T01:36:46;18.08;;;8.77;;
66972;SDS011;53902;51.466;-2.586;2023-05-07T01:39:12;23.42;;;9.60;;
66972;SDS011;53902;51.466;-2.586;2023-05-07T01:41:38;21.00;;;8.68;;
66972;SDS011;53902;51.466;-2.586;2023-05-07T01:44:04;17.35;;;8.30;;
66972;SDS011;53902;51.466;-2.586;2023-05-07T01:46:30;19.95;;;8.70;;
66972;SDS011;53902;51.466;-2.586;2023-05-07T01:48:56;18.73;;;8.10;;
66972;SDS011;53902;51.466;-2.586;2023-05-07T01:51:23;18.13;;;8.60;;
66972;SDS011;53902;51.466;-2.586;2023-05-07T01:53:48;18.42;;;8.45;;
66972;SDS011;53902;51.466;-2.586;2023-05-07T01:56:16;21.17;;;9.10;;
66972;SDS011;53902;51.466;-2.586;2023-05-07T02:01:09;26.10;;;9.60;;
66972;SDS011;53902;51.466;-2.586;2023-05-07T02:03:34;16.42;;;8.93;;
66972;SDS011;53902;51.466;-2.586;2023-05-07T02:06:00;23.77;;;11.05;;
66972;SDS011;53902;51.466;-2.586;2023-05-07T02:08:26;18.95;;;9.40;;
66972;SDS011;53902;51.466;-2.586;2023-05-07T02:10:51;20.00;;;10.10;;
66972;SDS011;53902;51.466;-2.586;2023-05-07T02:15:44;15.95;;;8.23;;
66972;SDS011;53902;51.466;-2.586;2023-05-07T02:18:15;16.10;;;8.80;;
66972;SDS011;53902;51.466;-2.586;2023-05-07T02:20:42;18.15;;;9.00;;
66972;SDS011;53902;51.466;-2.586;2023-05-07T02:23:07;18.58;;;9.25;;
66972;SDS011;53902;51.466;-2.586;2023-05-07T02:25:32;17.95;;;9.63;;
66972;SDS011;53902;51.466;-2.586;2023-05-07T02:27:58;20.45;;;8.70;;
66972;SDS011;53902;51.466;-2.586;2023-05-07T02:30:24;14.18;;;8.48;;
66972;SDS011;53902;51.466;-2.586;2023-05-07T02:32:50;15.23;;;8.10;;
66972;SDS011;53902;51.466;-2.586;2023-05-07T02:35:15;17.88;;;8.20;;
66972;SDS011;53902;51.466;-2.586;2023-05-07T02:37:41;15.30;;;7.82;;
66972;SDS011;53902;51.466;-2.586;2023-05-07T02:40:06;15.10;;;7.90;;
66972;SDS011;53902;51.466;-2.586;2023-05-07T02:42:32;19.70;;;8.35;;
66972;SDS011;53902;51.466;-2.586;2023-05-07T02:44:57;19.02;;;8.43;;
66972;SDS011;53902;51.466;-2.586;2023-05-07T02:47:24;19.50;;;8.20;;
66972;SDS011;53902;51.466;-2.586;2023-05-07T02:49:52;14.50;;;8.38;;
66972;SDS011;53902;51.466;-2.586;2023-05-07T02:52:18;19.75;;;8.27;;
66972;SDS011;53902;51.466;-2.586;2023-05-07T02:54:43;14.80;;;7.85;;
66972;SDS011;53902;51.466;-2.586;2023-05-07T02:57:09;18.45;;;8.88;;
66972;SDS011;53902;51.466;-2.586;2023-05-07T02:59:35;17.05;;;9.10;;
66972;SDS011;53902;51.466;-2.586;2023-05-07T03:02:04;18.63;;;8.73;;
66972;SDS011;53902;51.466;-2.586;2023-05-07T03:04:30;19.70;;;8.57;;
66972;SDS011;53902;51.466;-2.586;2023-05-07T03:06:55;20.75;;;9.45;;
66972;SDS011;53902;51.466;-2.586;2023-05-07T03:09:21;23.60;;;10.48;;
66972;SDS011;53902;51.466;-2.586;2023-05-07T03:11:46;17.52;;;9.77;;
66972;SDS011;53902;51.466;-2.586;2023-05-07T03:14:12;19.85;;;9.60;;
66972;SDS011;53902;51.466;-2.586;2023-05-07T03:16:37;18.92;;;10.10;;
66972;SDS011;53902;51.466;-2.586;2023-05-07T03:19:03;19.30;;;9.63;;
66972;SDS011;53902;51.466;-2.586;2023-05-07T03:21:30;21.63;;;9.88;;
66972;SDS011;53902;51.466;-2.586;2023-05-07T03:23:55;23.35;;;10.15;;
66972;SDS011;53902;51.466;-2.586;2023-05-07T03:26:21;19.38;;;9.38;;
66972;SDS011;53902;51.466;-2.586;2023-05-07T03:28:46;18.42;;;9.88;;
66972;SDS011;53902;51.466;-2.586;2023-05-07T03:31:11;20.58;;;10.30;;
66972;SDS011;53902;51.466;-2.586;2023-05-07T03:33:38;19.30;;;10.02;;
66972;SDS011;53902;51.466;-2.586;2023-05-07T03:36:16;20.75;;;9.63;;
66972;SDS011;53902;51.466;-2.586;2023-05-07T03:38:41;19.77;;;9.80;;
66972;SDS011;53902;51.466;-2.586;2023-05-07T03:41:07;24.80;;;10.73;;
66972;SDS011;53902;51.466;-2.586;2023-05-07T03:43:32;21.42;;;10.10;;
66972;SDS011;53902;51.466;-2.586;2023-05-07T03:45:57;18.38;;;10.05;;
66972;SDS011;53902;51.466;-2.586;2023-05-07T03:48:23;23.33;;;10.45;;
66972;SDS011;53902;51.466;-2.586;2023-05-07T03:50:48;26.13;;;11.70;;
66972;SDS011;53902;51.466;-2.586;2023-05-07T03:53:13;27.50;;;12.13;;
66972;SDS011;53902;51.466;-2.586;2023-05-07T03:55:39;28.33;;;12.32;;
66972;SDS011;53902;51.466;-2.586;2023-05-07T03:58:04;28.75;;;12.93;;
66972;SDS011;53902;51.466;-2.586;2023-05-07T04:00:30;33.60;;;14.88;;
66972;SDS011;53902;51.466;-2.586;2023-05-07T04:02:58;30.38;;;13.63;;
66972;SDS011;53902;51.466;-2.586;2023-05-07T04:05:24;27.08;;;12.82;;
66972;SDS011;53902;51.466;-2.586;2023-05-07T04:07:49;34.78;;;13.65;;
66972;SDS011;53902;51.466;-2.586;2023-05-07T04:10:15;33.50;;;13.55;;
66972;SDS011;53902;51.466;-2.586;2023-05-07T04:12:40;34.60;;;14.95;;
66972;SDS011;53902;51.466;-2.586;2023-05-07T04:15:06;29.13;;;14.32;;
66972;SDS011;53902;51.466;-2.586;2023-05-07T04:17:32;31.05;;;13.65;;
66972;SDS011;53902;51.466;-2.586;2023-05-07T04:19:57;33.13;;;13.55;;
66972;SDS011;53902;51.466;-2.586;2023-05-07T04:22:22;33.17;;;15.00;;
66972;SDS011;53902;51.466;-2.586;2023-05-07T04:24:48;31.25;;;13.82;;
66972;SDS011;53902;51.466;-2.586;2023-05-07T04:27:13;30.25;;;14.10;;
66972;SDS011;53902;51.466;-2.586;2023-05-07T04:29:39;34.40;;;14.50;;
66972;SDS011;53902;51.466;-2.586;2023-05-07T04:32:07;31.63;;;14.10;;
66972;SDS011;53902;51.466;-2.586;2023-05-07T04:34:33;24.52;;;12.80;;
66972;SDS011;53902;51.466;-2.586;2023-05-07T04:36:59;29.85;;;13.50;;
66972;SDS011;53902;51.466;-2.586;2023-05-07T04:39:24;31.20;;;12.63;;
66972;SDS011;53902;51.466;-2.586;2023-05-07T04:41:50;27.85;;;12.88;;
66972;SDS011;53902;51.466;-2.586;2023-05-07T04:44:15;28.30;;;12.77;;
66972;SDS011;53902;51.466;-2.586;2023-05-07T04:46:41;29.48;;;13.10;;
66972;SDS011;53902;51.466;-2.586;2023-05-07T04:49:07;26.48;;;12.52;;
66972;SDS011;53902;51.466;-2.586;2023-05-07T04:51:32;25.33;;;11.55;;
66972;SDS011;53902;51.466;-2.586;2023-05-07T04:53:58;31.52;;;12.52;;
66972;SDS011;53902;51.466;-2.586;2023-05-07T04:56:23;28.45;;;12.25;;
66972;SDS011;53902;51.466;-2.586;2023-05-07T04:58:49;24.80;;;11.02;;
66972;SDS011;53902;51.466;-2.586;2023-05-07T05:01:14;25.98;;;11.65;;
66972;SDS011;53902;51.466;-2.586;2023-05-07T05:03:39;25.85;;;11.43;;
66972;SDS011;53902;51.466;-2.586;2023-05-07T05:06:05;25.75;;;11.95;;
66972;SDS011;53902;51.466;-2.586;2023-05-07T05:08:32;24.38;;;10.15;;
66972;SDS011;53902;51.466;-2.586;2023-05-07T05:10:58;21.65;;;10.32;;
66972;SDS011;53902;51.466;-2.586;2023-05-07T05:13:26;21.85;;;9.70;;
66972;SDS011;53902;51.466;-2.586;2023-05-07T05:15:51;20.80;;;10.25;;
66972;SDS011;53902;51.466;-2.586;2023-05-07T05:18:17;20.80;;;9.77;;
66972;SDS011;53902;51.466;-2.586;2023-05-07T05:20:42;18.00;;;9.40;;
66972;SDS011;53902;51.466;-2.586;2023-05-07T05:23:07;21.65;;;10.18;;
66972;SDS011;53902;51.466;-2.586;2023-05-07T05:25:33;20.10;;;9.85;;
66972;SDS011;53902;51.466;-2.586;2023-05-07T05:27:58;25.15;;;9.65;;
66972;SDS011;53902;51.466;-2.586;2023-05-07T05:30:24;18.90;;;8.77;;
66972;SDS011;53902;51.466;-2.586;2023-05-07T05:32:49;20.15;;;9.07;;
66972;SDS011;53902;51.466;-2.586;2023-05-07T05:35:15;22.77;;;9.57;;
66972;SDS011;53902;51.466;-2.586;2023-05-07T05:37:40;24.08;;;9.52;;
66972;SDS011;53902;51.466;-2.586;2023-05-07T05:40:06;18.02;;;9.30;;
66972;SDS011;53902;51.466;-2.586;2023-05-07T05:42:32;19.02;;;9.70;;
66972;SDS011;53902;51.466;-2.586;2023-05-07T05:44:58;16.67;;;8.75;;
66972;SDS011;53902;51.466;-2.586;2023-05-07T05:47:24;20.05;;;9.25;;
66972;SDS011;53902;51.466;-2.586;2023-05-07T05:49:49;21.75;;;10.15;;
66972;SDS011;53902;51.466;-2.586;2023-05-07T05:52:15;20.73;;;9.05;;
66972;SDS011;53902;51.466;-2.586;2023-05-07T05:54:42;23.97;;;9.50;;
66972;SDS011;53902;51.466;-2.586;2023-05-07T05:57:07;21.08;;;9.57;;
66972;SDS011;53902;51.466;-2.586;2023-05-07T05:59:32;18.88;;;8.90;;
66972;SDS011;53902;51.466;-2.586;2023-05-07T06:01:58;15.63;;;8.75;;
66972;SDS011;53902;51.466;-2.586;2023-05-07T06:04:24;16.67;;;8.30;;
66972;SDS011;53902;51.466;-2.586;2023-05-07T06:06:50;16.58;;;7.68;;
66972;SDS011;53902;51.466;-2.586;2023-05-07T06:09:18;19.80;;;9.40;;
66972;SDS011;53902;51.466;-2.586;2023-05-07T06:11:44;14.75;;;7.68;;
66972;SDS011;53902;51.466;-2.586;2023-05-07T06:14:09;13.07;;;7.10;;
66972;SDS011;53902;51.466;-2.586;2023-05-07T06:16:34;13.13;;;7.00;;
66972;SDS011;53902;51.466;-2.586;2023-05-07T06:19:01;12.57;;;6.53;;
66972;SDS011;53902;51.466;-2.586;2023-05-07T06:24:30;12.30;;;6.45;;
66972;SDS011;53902;51.466;-2.586;2023-05-07T06:26:55;12.33;;;6.43;;
66972;SDS011;53902;51.466;-2.586;2023-05-07T06:29:23;11.07;;;6.18;;
66972;SDS011;53902;51.466;-2.586;2023-05-07T06:31:50;9.93;;;5.85;;
66972;SDS011;53902;51.466;-2.586;2023-05-07T06:36:42;13.17;;;5.53;;
66972;SDS011;53902;51.466;-2.586;2023-05-07T06:39:08;13.37;;;5.90;;
66972;SDS011;53902;51.466;-2.586;2023-05-07T06:41:33;11.63;;;5.93;;
66972;SDS011;53902;51.466;-2.586;2023-05-07T06:44:00;13.27;;;6.00;;
66972;SDS011;53902;51.466;-2.586;2023-05-07T06:46:27;12.38;;;6.05;;
66972;SDS011;53902;51.466;-2.586;2023-05-07T06:48:52;11.63;;;5.90;;
66972;SDS011;53902;51.466;-2.586;2023-05-07T06:51:18;10.47;;;5.00;;
66972;SDS011;53902;51.466;-2.586;2023-05-07T06:53:43;14.47;;;6.40;;
66972;SDS011;53902;51.466;-2.586;2023-05-07T06:56:08;10.40;;;5.70;;
66972;SDS011;53902;51.466;-2.586;2023-05-07T06:58:34;12.57;;;5.70;;
66972;SDS011;53902;51.466;-2.586;2023-05-07T07:01:00;14.50;;;5.90;;
66972;SDS011;53902;51.466;-2.586;2023-05-07T07:03:25;14.57;;;5.53;;
66972;SDS011;53902;51.466;-2.586;2023-05-07T07:05:52;10.93;;;5.63;;
66972;SDS011;53902;51.466;-2.586;2023-05-07T07:08:18;13.93;;;5.73;;
66972;SDS011;53902;51.466;-2.586;2023-05-07T07:10:46;12.90;;;5.65;;
66972;SDS011;53902;51.466;-2.586;2023-05-07T07:13:11;11.75;;;4.63;;
66972;SDS011;53902;51.466;-2.586;2023-05-07T07:15:37;13.82;;;6.20;;
66972;SDS011;53902;51.466;-2.586;2023-05-07T07:18:02;9.95;;;5.10;;
66972;SDS011;53902;51.466;-2.586;2023-05-07T07:20:28;13.18;;;5.22;;
66972;SDS011;53902;51.466;-2.586;2023-05-07T07:22:53;11.07;;;5.20;;
66972;SDS011;53902;51.466;-2.586;2023-05-07T07:30:40;9.23;;;4.40;;
66972;SDS011;53902;51.466;-2.586;2023-05-07T07:33:05;9.40;;;4.47;;
66972;SDS011;53902;51.466;-2.586;2023-05-07T07:35:34;11.32;;;4.82;;
66972;SDS011;53902;51.466;-2.586;2023-05-07T07:37:59;13.48;;;4.38;;
66972;SDS011;53902;51.466;-2.586;2023-05-07T07:40:26;9.00;;;3.85;;
66972;SDS011;53902;51.466;-2.586;2023-05-07T07:42:52;11.20;;;4.07;;
66972;SDS011;53902;51.466;-2.586;2023-05-07T07:48:09;9.20;;;4.07;;
66972;SDS011;53902;51.466;-2.586;2023-05-07T07:50:34;11.60;;;3.92;;
66972;SDS011;53902;51.466;-2.586;2023-05-07T07:53:00;14.30;;;4.85;;
66972;SDS011;53902;51.466;-2.586;2023-05-07T07:55:25;10.25;;;4.35;;
66972;SDS011;53902;51.466;-2.586;2023-05-07T07:57:52;13.65;;;4.22;;
66972;SDS011;53902;51.466;-2.586;2023-05-07T08:00:17;10.63;;;4.23;;
66972;SDS011;53902;51.466;-2.586;2023-05-07T08:02:43;11.07;;;4.07;;
66972;SDS011;53902;51.466;-2.586;2023-05-07T08:05:08;10.43;;;3.80;;
66972;SDS011;53902;51.466;-2.586;2023-05-07T08:07:34;8.48;;;3.78;;
66972;SDS011;53902;51.466;-2.586;2023-05-07T08:09:59;11.95;;;4.03;;
66972;SDS011;53902;51.466;-2.586;2023-05-07T08:12:25;15.50;;;3.60;;
66972;SDS011;53902;51.466;-2.586;2023-05-07T08:14:50;7.70;;;2.90;;
66972;SDS011;53902;51.466;-2.586;2023-05-07T08:17:16;9.43;;;3.20;;
66972;SDS011;53902;51.466;-2.586;2023-05-07T08:19:41;5.07;;;2.63;;
66972;SDS011;53902;51.466;-2.586;2023-05-07T08:22:08;9.85;;;2.92;;
66972;SDS011;53902;51.466;-2.586;2023-05-07T08:24:34;8.60;;;2.87;;
66972;SDS011;53902;51.466;-2.586;2023-05-07T08:26:59;5.53;;;2.40;;
66972;SDS011;53902;51.466;-2.586;2023-05-07T08:29:25;5.78;;;1.80;;
66972;SDS011;53902;51.466;-2.586;2023-05-07T08:31:50;6.93;;;2.22;;
66972;SDS011;53902;51.466;-2.586;2023-05-07T08:34:16;7.00;;;2.03;;
66972;SDS011;53902;51.466;-2.586;2023-05-07T08:36:42;9.63;;;1.75;;
66972;SDS011;53902;51.466;-2.586;2023-05-07T08:39:07;5.57;;;1.83;;
66972;SDS011;53902;51.466;-2.586;2023-05-07T08:41:32;6.77;;;1.80;;
66972;SDS011;53902;51.466;-2.586;2023-05-07T08:43:58;5.68;;;1.60;;
66972;SDS011;53902;51.466;-2.586;2023-05-07T08:46:27;2.97;;;1.70;;
66972;SDS011;53902;51.466;-2.586;2023-05-07T08:48:56;5.85;;;1.85;;
66972;SDS011;53902;51.466;-2.586;2023-05-07T08:51:21;6.95;;;1.75;;
66972;SDS011;53902;51.466;-2.586;2023-05-07T08:53:48;11.68;;;2.13;;
66972;SDS011;53902;51.466;-2.586;2023-05-07T08:56:16;3.65;;;1.40;;
66972;SDS011;53902;51.466;-2.586;2023-05-07T08:58:57;10.25;;;1.90;;
66972;SDS011;53902;51.466;-2.586;2023-05-07T09:01:23;4.13;;;1.42;;
66972;SDS011;53902;51.466;-2.586;2023-05-07T09:03:50;8.77;;;1.95;;
66972;SDS011;53902;51.466;-2.586;2023-05-07T09:06:15;5.77;;;1.67;;
66972;SDS011;53902;51.466;-2.586;2023-05-07T09:11:13;4.82;;;1.80;;
66972;SDS011;53902;51.466;-2.586;2023-05-07T09:13:39;4.93;;;1.60;;
66972;SDS011;53902;51.466;-2.586;2023-05-07T09:16:13;5.50;;;1.63;;
66972;SDS011;53902;51.466;-2.586;2023-05-07T09:18:42;3.65;;;1.92;;
66972;SDS011;53902;51.466;-2.586;2023-05-07T09:21:10;6.65;;;2.17;;
66972;SDS011;53902;51.466;-2.586;2023-05-07T09:23:45;6.18;;;2.15;;
66972;SDS011;53902;51.466;-2.586;2023-05-07T09:26:10;6.30;;;2.25;;
66972;SDS011;53902;51.466;-2.586;2023-05-07T09:28:39;4.82;;;1.58;;
66972;SDS011;53902;51.466;-2.586;2023-05-07T09:31:08;5.13;;;1.83;;
66972;SDS011;53902;51.466;-2.586;2023-05-07T09:33:35;8.98;;;2.20;;
66972;SDS011;53902;51.466;-2.586;2023-05-07T09:36:13;4.33;;;1.87;;
66972;SDS011;53902;51.466;-2.586;2023-05-07T09:38:39;6.28;;;2.28;;
66972;SDS011;53902;51.466;-2.586;2023-05-07T09:41:06;8.27;;;2.83;;
66972;SDS011;53902;51.466;-2.586;2023-05-07T09:43:33;8.50;;;3.30;;
66972;SDS011;53902;51.466;-2.586;2023-05-07T09:46:23;7.38;;;2.88;;
66972;SDS011;53902;51.466;-2.586;2023-05-07T09:48:49;8.15;;;3.00;;
66972;SDS011;53902;51.466;-2.586;2023-05-07T09:53:54;6.25;;;2.70;;
66972;SDS011;53902;51.466;-2.586;2023-05-07T09:56:21;8.20;;;2.97;;
66972;SDS011;53902;51.466;-2.586;2023-05-07T09:58:48;9.88;;;3.45;;
66972;SDS011;53902;51.466;-2.586;2023-05-07T10:01:15;11.10;;;3.90;;
66972;SDS011;53902;51.466;-2.586;2023-05-07T10:03:42;11.05;;;3.42;;
66972;SDS011;53902;51.466;-2.586;2023-05-07T10:06:09;9.40;;;3.13;;
66972;SDS011;53902;51.466;-2.586;2023-05-07T10:11:03;9.25;;;3.15;;
66972;SDS011;53902;51.466;-2.586;2023-05-07T10:13:30;7.65;;;3.55;;
66972;SDS011;53902;51.466;-2.586;2023-05-07T10:15:57;8.67;;;3.10;;
66972;SDS011;53902;51.466;-2.586;2023-05-07T10:20:48;7.90;;;2.80;;
66972;SDS011;53902;51.466;-2.586;2023-05-07T10:23:23;6.20;;;2.30;;
66972;SDS011;53902;51.466;-2.586;2023-05-07T10:25:48;6.18;;;2.10;;
66972;SDS011;53902;51.466;-2.586;2023-05-07T10:33:15;5.57;;;2.10;;
66972;SDS011;53902;51.466;-2.586;2023-05-07T10:35:42;6.32;;;2.20;;
66972;SDS011;53902;51.466;-2.586;2023-05-07T10:38:09;11.75;;;2.10;;
66972;SDS011;53902;51.466;-2.586;2023-05-07T10:40:35;6.17;;;2.10;;
66972;SDS011;53902;51.466;-2.586;2023-05-07T10:43:01;7.80;;;2.33;;
66972;SDS011;53902;51.466;-2.586;2023-05-07T10:45:29;5.88;;;2.50;;
66972;SDS011;53902;51.466;-2.586;2023-05-07T10:48:08;7.33;;;3.33;;
66972;SDS011;53902;51.466;-2.586;2023-05-07T10:50:41;6.60;;;3.00;;
66972;SDS011;53902;51.466;-2.586;2023-05-07T10:55:42;6.22;;;2.20;;
66972;SDS011;53902;51.466;-2.586;2023-05-07T11:00:46;4.70;;;2.40;;
66972;SDS011;53902;51.466;-2.586;2023-05-07T11:03:12;6.63;;;3.00;;
66972;SDS011;53902;51.466;-2.586;2023-05-07T11:05:37;8.70;;;2.83;;
66972;SDS011;53902;51.466;-2.586;2023-05-07T11:08:03;4.53;;;2.43;;
66972;SDS011;53902;51.466;-2.586;2023-05-07T11:16:20;4.30;;;2.85;;
66972;SDS011;53902;51.466;-2.586;2023-05-07T11:18:47;6.30;;;2.67;;
66972;SDS011;53902;51.466;-2.586;2023-05-07T11:24:06;7.32;;;2.90;;
66972;SDS011;53902;51.466;-2.586;2023-05-07T11:26:45;4.15;;;2.63;;
66972;SDS011;53902;51.466;-2.586;2023-05-07T11:32:05;4.90;;;2.60;;
66972;SDS011;53902;51.466;-2.586;2023-05-07T11:34:31;5.03;;;2.23;;
66972;SDS011;53902;51.466;-2.586;2023-05-07T11:36:57;6.07;;;2.70;;
66972;SDS011;53902;51.466;-2.586;2023-05-07T11:39:27;4.00;;;2.50;;
66972;SDS011;53902;51.466;-2.586;2023-05-07T11:42:00;6.47;;;2.95;;
66972;SDS011;53902;51.466;-2.586;2023-05-07T11:44:42;6.93;;;2.65;;
66972;SDS011;53902;51.466;-2.586;2023-05-07T11:47:08;4.00;;;2.55;;
66972;SDS011;53902;51.466;-2.586;2023-05-07T11:49:35;5.38;;;2.90;;
66972;SDS011;53902;51.466;-2.586;2023-05-07T11:52:00;10.60;;;2.83;;
66972;SDS011;53902;51.466;-2.586;2023-05-07T11:54:26;8.10;;;3.57;;
66972;SDS011;53902;51.466;-2.586;2023-05-07T11:56:53;9.77;;;4.03;;
66972;SDS011;53902;51.466;-2.586;2023-05-07T11:59:21;7.00;;;3.28;;
66972;SDS011;53902;51.466;-2.586;2023-05-07T12:01:46;5.87;;;3.47;;
66972;SDS011;53902;51.466;-2.586;2023-05-07T12:04:12;11.80;;;4.30;;
66972;SDS011;53902;51.466;-2.586;2023-05-07T12:06:37;9.40;;;4.70;;
66972;SDS011;53902;51.466;-2.586;2023-05-07T12:09:03;6.95;;;4.93;;
66972;SDS011;53902;51.466;-2.586;2023-05-07T12:11:29;13.57;;;5.78;;
66972;SDS011;53902;51.466;-2.586;2023-05-07T12:13:55;10.03;;;5.80;;
66972;SDS011;53902;51.466;-2.586;2023-05-07T12:16:20;13.17;;;5.53;;
66972;SDS011;53902;51.466;-2.586;2023-05-07T12:18:46;12.40;;;5.93;;
66972;SDS011;53902;51.466;-2.586;2023-05-07T12:21:12;10.37;;;5.83;;
66972;SDS011;53902;51.466;-2.586;2023-05-07T12:23:37;9.10;;;5.70;;
66972;SDS011;53902;51.466;-2.586;2023-05-07T12:26:03;13.67;;;6.47;;
66972;SDS011;53902;51.466;-2.586;2023-05-07T12:28:29;10.77;;;6.17;;
66972;SDS011;53902;51.466;-2.586;2023-05-07T12:30:55;11.85;;;6.28;;
66972;SDS011;53902;51.466;-2.586;2023-05-07T12:33:25;10.30;;;6.60;;
66972;SDS011;53902;51.466;-2.586;2023-05-07T12:35:52;11.18;;;6.20;;
66972;SDS011;53902;51.466;-2.586;2023-05-07T12:38:20;13.73;;;7.05;;
66972;SDS011;53902;51.466;-2.586;2023-05-07T12:40:47;12.17;;;7.47;;
66972;SDS011;53902;51.466;-2.586;2023-05-07T12:45:50;13.75;;;7.13;;
66972;SDS011;53902;51.466;-2.586;2023-05-07T12:48:16;10.88;;;6.47;;
66972;SDS011;53902;51.466;-2.586;2023-05-07T12:50:42;9.73;;;4.93;;
66972;SDS011;53902;51.466;-2.586;2023-05-07T12:53:09;9.23;;;4.30;;
66972;SDS011;53902;51.466;-2.586;2023-05-07T12:55:46;10.57;;;3.70;;
66972;SDS011;53902;51.466;-2.586;2023-05-07T12:58:28;8.05;;;3.40;;
66972;SDS011;53902;51.466;-2.586;2023-05-07T13:00:55;6.70;;;2.92;;
66972;SDS011;53902;51.466;-2.586;2023-05-07T13:03:30;8.52;;;3.65;;
66972;SDS011;53902;51.466;-2.586;2023-05-07T13:05:58;7.90;;;3.75;;
66972;SDS011;53902;51.466;-2.586;2023-05-07T13:10:50;6.50;;;3.50;;
66972;SDS011;53902;51.466;-2.586;2023-05-07T13:13:16;8.13;;;3.20;;
66972;SDS011;53902;51.466;-2.586;2023-05-07T13:15:41;11.43;;;3.17;;
66972;SDS011;53902;51.466;-2.586;2023-05-07T13:18:06;7.20;;;2.57;;
66972;SDS011;53902;51.466;-2.586;2023-05-07T13:20:32;6.03;;;2.50;;
66972;SDS011;53902;51.466;-2.586;2023-05-07T13:22:57;6.77;;;2.60;;
66972;SDS011;53902;51.466;-2.586;2023-05-07T13:25:22;7.73;;;2.47;;
66972;SDS011;53902;51.466;-2.586;2023-05-07T13:27:48;8.13;;;1.90;;
66972;SDS011;53902;51.466;-2.586;2023-05-07T13:30:13;7.03;;;1.83;;
66972;SDS011;53902;51.466;-2.586;2023-05-07T13:32:38;9.13;;;1.93;;
66972;SDS011;53902;51.466;-2.586;2023-05-07T13:35:04;6.57;;;2.23;;
66972;SDS011;53902;51.466;-2.586;2023-05-07T13:37:30;6.33;;;1.70;;
66972;SDS011;53902;51.466;-2.586;2023-05-07T13:39:55;8.03;;;1.90;;
66972;SDS011;53902;51.466;-2.586;2023-05-07T13:42:20;9.10;;;2.20;;
66972;SDS011;53902;51.466;-2.586;2023-05-07T13:44:46;9.33;;;1.77;;
66972;SDS011;53902;51.466;-2.586;2023-05-07T13:47:11;5.23;;;1.90;;
66972;SDS011;53902;51.466;-2.586;2023-05-07T13:49:37;6.07;;;1.63;;
66972;SDS011;53902;51.466;-2.586;2023-05-07T13:52:02;8.60;;;2.17;;
66972;SDS011;53902;51.466;-2.586;2023-05-07T13:54:28;3.90;;;1.50;;
66972;SDS011;53902;51.466;-2.586;2023-05-07T13:56:53;7.33;;;1.40;;
66972;SDS011;53902;51.466;-2.586;2023-05-07T13:59:19;4.47;;;1.20;;
66972;SDS011;53902;51.466;-2.586;2023-05-07T14:01:44;4.87;;;1.53;;
66972;SDS011;53902;51.466;-2.586;2023-05-07T14:04:09;5.57;;;1.37;;
66972;SDS011;53902;51.466;-2.586;2023-05-07T14:06:35;3.60;;;1.20;;
66972;SDS011;53902;51.466;-2.586;2023-05-07T14:09:00;4.73;;;1.30;;
66972;SDS011;53902;51.466;-2.586;2023-05-07T14:11:26;6.40;;;1.43;;
66972;SDS011;53902;51.466;-2.586;2023-05-07T14:13:51;7.40;;;1.30;;
66972;SDS011;53902;51.466;-2.586;2023-05-07T14:16:16;6.77;;;1.63;;
66972;SDS011;53902;51.466;-2.586;2023-05-07T14:18:42;2.33;;;1.30;;
66972;SDS011;53902;51.466;-2.586;2023-05-07T14:21:07;4.27;;;1.50;;
66972;SDS011;53902;51.466;-2.586;2023-05-07T14:23:34;4.07;;;1.20;;
66972;SDS011;53902;51.466;-2.586;2023-05-07T14:25:59;2.00;;;1.00;;
66972;SDS011;53902;51.466;-2.586;2023-05-07T14:28:25;2.70;;;1.20;;
66972;SDS011;53902;51.466;-2.586;2023-05-07T14:30:50;6.67;;;1.33;;
66972;SDS011;53902;51.466;-2.586;2023-05-07T14:33:16;3.70;;;1.30;;
66972;SDS011;53902;51.466;-2.586;2023-05-07T14:35:42;3.78;;;1.48;;
66972;SDS011;53902;51.466;-2.586;2023-05-07T14:38:12;5.95;;;1.30;;
66972;SDS011;53902;51.466;-2.586;2023-05-07T14:40:37;3.40;;;1.27;;
66972;SDS011;53902;51.466;-2.586;2023-05-07T14:43:03;3.30;;;1.40;;
66972;SDS011;53902;51.466;-2.586;2023-05-07T14:45:28;4.70;;;1.40;;
66972;SDS011;53902;51.466;-2.586;2023-05-07T14:47:53;3.97;;;1.40;;
66972;SDS011;53902;51.466;-2.586;2023-05-07T14:50:19;3.03;;;1.30;;
66972;SDS011;53902;51.466;-2.586;2023-05-07T14:52:44;3.93;;;1.47;;
66972;SDS011;53902;51.466;-2.586;2023-05-07T14:55:10;7.03;;;1.60;;
66972;SDS011;53902;51.466;-2.586;2023-05-07T14:57:35;5.83;;;1.47;;
66972;SDS011;53902;51.466;-2.586;2023-05-07T15:00:01;3.67;;;1.20;;
66972;SDS011;53902;51.466;-2.586;2023-05-07T15:02:29;3.08;;;1.10;;
66972;SDS011;53902;51.466;-2.586;2023-05-07T15:04:54;6.67;;;1.13;;
66972;SDS011;53902;51.466;-2.586;2023-05-07T15:07:20;5.33;;;1.33;;
66972;SDS011;53902;51.466;-2.586;2023-05-07T15:09:45;3.70;;;1.40;;
66972;SDS011;53902;51.466;-2.586;2023-05-07T15:12:11;3.60;;;1.10;;
66972;SDS011;53902;51.466;-2.586;2023-05-07T15:14:38;4.30;;;1.23;;
66972;SDS011;53902;51.466;-2.586;2023-05-07T15:17:03;3.00;;;1.10;;